Time;durP1;ratioP1;P1;durP2;ratioP2;P2;SDS_P1;SDS_P2;PMS_P1;PMS_P2;Temp;Humidity;BMP_temperature;BMP_pressure;BME280_temperature;BME280_humidity;BME280_pressure;Samples;Min_cycle;Max_cycle;Signal;HPM_P1;HPM_P2
2021/04/17 00:03:41;;;;;;;9.87;5.97;;;;;;;6.11;100.00;94839.78;10468888;28;20387;-76
2021/04/17 00:08:41;;;;;;;17.70;7.05;;;;;;;5.79;100.00;94826.97;10487107;28;20040;-75
2021/04/17 00:13:42;;;;;;;11.13;6.93;;;;;;;5.47;100.00;94824.84;10468304;28;20407;-75
2021/04/17 00:18:43;;;;;;;15.52;6.25;;;;;;;5.21;100.00;94821.66;10486378;28;20024;-76
2021/04/17 00:23:44;;;;;;;9.10;6.60;;;;;;;4.80;100.00;94836.84;10484810;28;20479;-76
2021/04/17 00:28:44;;;;;;;13.52;8.05;;;;;;;4.71;100.00;94833.72;10485473;28;20103;-75
2021/04/17 00:33:45;;;;;;;15.98;8.13;;;;;;;4.54;100.00;94827.50;10484286;28;20036;-76
2021/04/17 00:38:45;;;;;;;13.40;8.13;;;;;;;4.22;100.00;94830.50;10484283;28;20031;-76
2021/04/17 00:43:45;;;;;;;18.70;9.23;;;;;;;3.98;100.00;94827.81;10485173;28;20285;-76
2021/04/17 00:48:46;;;;;;;13.18;7.97;;;;;;;4.01;100.00;94821.22;10485067;28;20032;-76
2021/04/17 00:53:47;;;;;;;14.82;9.15;;;;;;;4.00;100.00;94819.59;10480361;28;20045;-76
2021/04/17 00:58:48;;;;;;;15.65;8.98;;;;;;;3.93;100.00;94817.88;10484474;28;20044;-75
2021/04/17 01:04:06;;;;;;;13.90;8.75;;;;;;;3.99;100.00;94810.84;10484513;28;20117;-75
2021/04/17 01:09:19;;;;;;;12.82;7.32;;;;;;;3.88;100.00;94806.28;10483441;28;20136;-75
2021/04/17 01:14:21;;;;;;;11.38;6.75;;;;;;;3.78;100.00;94808.69;10482122;28;20407;-74
2021/04/17 01:20:00;;;;;;;15.63;9.35;;;;;;;3.68;100.00;94793.31;10481832;28;20071;-74
2021/04/17 01:25:16;;;;;;;16.33;8.85;;;;;;;3.61;100.00;94792.63;10460870;28;20451;-75
2021/04/17 01:30:19;;;;;;;10.18;7.57;;;;;;;3.52;100.00;94810.75;10497685;28;20056;-74
2021/04/17 01:35:20;;;;;;;15.52;8.73;;;;;;;3.51;100.00;94798.47;10483258;28;20032;-74
2021/04/17 01:40:24;;;;;;;10.57;6.60;;;;;;;3.40;100.00;94810.69;10464988;28;20044;-74
2021/04/17 01:45:28;;;;;;;10.68;6.38;;;;;;;3.35;100.00;94803.41;10498175;28;20028;-74
2021/04/17 01:50:30;;;;;;;9.25;5.88;;;;;;;3.37;100.00;94797.88;10482967;28;20024;-74
2021/04/17 01:55:34;;;;;;;10.25;6.03;;;;;;;3.48;100.00;94794.44;10482601;28;20107;-74
2021/04/17 02:00:34;;;;;;;7.28;5.18;;;;;;;3.58;100.00;94796.53;10482496;28;20064;-74
2021/04/17 02:05:34;;;;;;;7.10;4.80;;;;;;;3.61;100.00;94787.31;10482319;28;20035;-74
2021/04/17 02:10:35;;;;;;;6.03;3.87;;;;;;;3.57;100.00;94785.09;10482043;28;20028;-75
2021/04/17 02:15:37;;;;;;;8.93;5.65;;;;;;;3.72;100.00;94797.94;10482986;28;20036;-75
2021/04/17 02:20:45;;;;;;;5.22;3.22;;;;;;;3.75;100.00;94796.69;10481287;28;20021;-75
2021/04/17 02:25:45;;;;;;;5.60;3.93;;;;;;;3.63;100.00;94795.84;10463249;28;20032;-74
2021/04/17 02:30:46;;;;;;;6.25;4.35;;;;;;;3.68;100.00;94796.78;10480774;28;20021;-74
2021/04/17 02:35:47;;;;;;;10.00;5.28;;;;;;;3.65;100.00;94797.25;10481394;28;20036;-74
2021/04/17 02:40:47;;;;;;;6.70;4.85;;;;;;;3.50;100.00;94794.19;10463507;28;20106;-74
2021/04/17 02:45:47;;;;;;;7.00;4.95;;;;;;;3.49;100.00;94796.06;10481462;28;20074;-74
2021/04/17 02:50:48;;;;;;;6.57;5.37;;;;;;;3.46;100.00;94791.19;10481533;28;20498;-74
2021/04/17 02:55:48;;;;;;;8.00;5.15;;;;;;;3.47;100.00;94786.69;10481294;28;20064;-74
2021/04/17 03:00:49;;;;;;;10.87;4.83;;;;;;;3.49;100.00;94792.56;10488271;28;20060;-74
2021/04/17 03:05:50;;;;;;;6.30;4.85;;;;;;;3.54;100.00;94787.38;10489574;28;20310;-74
2021/04/17 03:10:50;;;;;;;8.23;5.20;;;;;;;3.55;100.00;94784.50;10488629;28;20028;-74
2021/04/17 03:15:51;;;;;;;5.70;4.65;;;;;;;3.53;100.00;94772.47;10488335;28;20486;-74
2021/04/17 03:20:51;;;;;;;8.23;5.45;;;;;;;3.46;100.00;94785.88;10488392;28;20024;-75
2021/04/17 03:25:52;;;;;;;8.83;5.60;;;;;;;3.45;100.00;94784.25;10488358;28;20062;-75
2021/04/17 03:30:52;;;;;;;9.18;5.38;;;;;;;3.47;100.00;94776.06;10470529;28;20988;-74
2021/04/17 03:35:52;;;;;;;9.17;6.17;;;;;;;3.55;100.00;94784.50;10487549;28;20024;-75
2021/04/17 03:40:53;;;;;;;8.43;5.60;;;;;;;3.63;100.00;94786.03;10469962;28;20293;-76
2021/04/17 03:45:53;;;;;;;12.13;5.75;;;;;;;3.68;100.00;94780.03;10487590;28;20028;-76
2021/04/17 03:50:54;;;;;;;13.30;8.50;;;;;;;3.80;100.00;94788.84;10487609;28;20039;-73
2021/04/17 03:55:54;;;;;;;15.27;10.70;;;;;;;3.78;100.00;94793.56;10488406;28;20629;-72
2021/04/17 04:00:54;;;;;;;12.80;8.87;;;;;;;3.61;100.00;94797.94;10528741;28;20043;-72
2021/04/17 04:05:55;;;;;;;12.87;8.00;;;;;;;3.40;100.00;94805.38;10510417;28;20324;-72
2021/04/17 04:10:55;;;;;;;16.20;8.18;;;;;;;3.53;100.00;94799.06;10527903;28;20031;-72
2021/04/17 04:15:56;;;;;;;11.13;7.60;;;;;;;3.49;100.00;94798.72;10528227;28;20034;-72
2021/04/17 04:20:56;;;;;;;11.80;7.80;;;;;;;3.61;100.00;94804.03;10527813;28;20027;-73
2021/04/17 04:25:57;;;;;;;11.00;7.40;;;;;;;3.67;100.00;94802.31;10528180;28;20377;-73
2021/04/17 04:30:57;;;;;;;11.65;8.35;;;;;;;3.76;100.00;94791.13;10527594;28;20373;-73
2021/04/17 04:35:58;;;;;;;13.90;8.70;;;;;;;3.76;100.00;94790.34;10527532;28;20035;-72
2021/04/17 04:40:58;;;;;;;12.65;8.65;;;;;;;3.89;100.00;94787.47;10527082;28;20064;-72
2021/04/17 04:45:59;;;;;;;12.02;8.25;;;;;;;3.95;100.00;94775.09;10527469;28;20056;-73
2021/04/17 04:50:59;;;;;;;12.07;7.83;;;;;;;3.83;100.00;94769.75;10526623;28;20762;-73
2021/04/17 04:55:59;;;;;;;14.00;7.90;;;;;;;3.66;100.00;94766.97;10526763;28;20031;-72
2021/04/17 05:01:01;;;;;;;14.33;8.83;;;;;;;3.65;100.00;94767.19;10455746;28;20839;-79
2021/04/17 05:06:01;;;;;;;13.85;9.68;;;;;;;3.69;100.00;94761.19;10533014;28;20119;-77
2021/04/17 05:11:02;;;;;;;18.77;11.50;;;;;;;3.74;100.00;94763.16;10527530;28;20020;-73
2021/04/17 05:16:03;;;;;;;18.92;12.45;;;;;;;3.72;100.00;94763.38;10524457;28;20024;-73
2021/04/17 05:21:03;;;;;;;18.85;12.02;;;;;;;3.74;100.00;94760.50;10523532;28;20035;-73
2021/04/17 05:26:04;;;;;;;19.38;12.63;;;;;;;3.86;100.00;94766.63;10514606;28;20383;-76
2021/04/17 05:31:04;;;;;;;22.97;14.73;;;;;;;3.92;100.00;94773.72;10507317;28;20020;-75
2021/04/17 05:36:05;;;;;;;25.35;14.60;;;;;;;4.10;100.00;94762.16;10508221;28;20305;-76
2021/04/17 05:41:06;;;;;;;26.30;15.27;;;;;;;4.22;100.00;94762.13;10517737;28;20028;-75
2021/04/17 05:46:06;;;;;;;25.65;14.77;;;;;;;4.25;100.00;94771.50;10505155;28;20032;-76
2021/04/17 05:51:06;;;;;;;23.90;14.55;;;;;;;4.33;100.00;94765.84;10509597;28;20541;-75
2021/04/17 05:56:08;;;;;;;24.80;14.10;;;;;;;4.26;100.00;94765.16;10529553;28;20093;-76
2021/04/17 06:01:08;;;;;;;30.00;15.95;;;;;;;4.40;100.00;94757.75;10502032;28;20339;-76
2021/04/17 06:06:09;;;;;;;23.87;14.50;;;;;;;4.46;100.00;94767.44;10522601;28;20073;-76
2021/04/17 06:11:09;;;;;;;26.13;14.80;;;;;;;4.41;100.00;94756.66;10522722;28;20020;-76
2021/04/17 06:16:09;;;;;;;25.58;16.00;;;;;;;4.40;100.00;94768.38;10519227;28;20755;-76
2021/04/17 06:21:11;;;;;;;28.07;17.37;;;;;;;4.39;100.00;94770.22;10498442;28;20402;-76
2021/04/17 06:26:11;;;;;;;25.02;13.80;;;;;;;4.38;100.00;94759.81;10485139;28;20487;-76
2021/04/17 06:31:12;;;;;;;27.90;17.57;;;;;;;4.38;100.00;94750.00;10519024;28;20024;-76
2021/04/17 06:36:12;;;;;;;29.73;16.23;;;;;;;4.51;100.00;94745.44;10531874;28;20278;-76
2021/04/17 06:41:13;;;;;;;24.58;15.38;;;;;;;4.64;100.00;94744.38;10490689;28;20017;-76
2021/04/17 06:46:16;;;;;;;32.33;17.75;;;;;;;4.76;100.00;94737.19;10501027;28;20032;-76
2021/04/17 06:51:18;;;;;;;29.52;18.20;;;;;;;4.85;100.00;94738.41;10486872;28;20534;-76
2021/04/17 06:56:23;;;;;;;29.52;18.17;;;;;;;4.64;100.00;94731.88;10520948;28;20842;-76
2021/04/17 07:01:23;;;;;;;27.27;15.40;;;;;;;4.50;100.00;94738.50;10518451;28;20028;-75
2021/04/17 07:06:24;;;;;;;29.93;17.23;;;;;;;4.51;100.00;94727.63;10530380;28;20391;-71
2021/04/17 07:11:24;;;;;;;30.70;16.25;;;;;;;4.51;100.00;94722.31;10501145;28;20291;-72
2021/04/17 07:16:25;;;;;;;29.95;16.67;;;;;;;4.37;100.00;94734.25;10471376;28;20016;-71
2021/04/17 07:21:27;;;;;;;27.37;15.87;;;;;;;4.48;100.00;94729.94;10489301;28;20060;-71
2021/04/17 07:26:28;;;;;;;30.98;17.55;;;;;;;4.54;100.00;94727.16;10495598;28;20115;-72
2021/04/17 07:31:30;;;;;;;30.73;17.75;;;;;;;4.64;100.00;94715.09;10470597;28;20050;-72
2021/04/17 07:36:48;;;;;;;33.58;17.15;;;;;;;4.61;100.00;94729.69;10514477;28;20497;-76
2021/04/17 07:41:57;;;;;;;29.52;16.08;;;;;;;4.68;100.00;94727.69;10528431;28;20825;-76
2021/04/17 07:46:58;;;;;;;28.35;16.40;;;;;;;4.56;100.00;94741.06;10500244;28;20024;-76
2021/04/17 07:52:08;;;;;;;35.60;19.02;;;;;;;4.66;100.00;94734.28;10487339;28;20506;-76
2021/04/17 07:57:10;;;;;;;35.03;19.08;;;;;;;4.83;100.00;94729.03;10515336;28;20032;-77
2021/04/17 08:02:13;;;;;;;31.25;19.30;;;;;;;4.94;100.00;94723.69;10529416;28;20028;-77
2021/04/17 08:07:15;;;;;;;32.25;18.40;;;;;;;5.12;100.00;94716.53;10529196;28;20024;-76
2021/04/17 08:12:17;;;;;;;29.05;17.35;;;;;;;5.23;100.00;94721.00;10529071;28;20831;-76
2021/04/17 08:17:20;;;;;;;26.52;16.15;;;;;;;5.13;100.00;94704.81;10523200;28;20420;-76
2021/04/17 08:22:22;;;;;;;30.17;17.88;;;;;;;5.21;100.00;94692.97;10510626;28;20024;-76
2021/04/17 08:27:23;;;;;;;25.45;15.35;;;;;;;5.17;100.00;94703.28;10477098;28;20035;-76
2021/04/17 08:32:26;;;;;;;20.10;13.40;;;;;;;5.17;100.00;94695.31;10486699;28;20035;-76
2021/04/17 08:37:26;;;;;;;26.60;13.70;;;;;;;5.05;100.00;94691.88;10514778;28;20051;-76
2021/04/17 08:42:46;;;;;;;25.90;14.77;;;;;;;5.05;100.00;94683.91;10509876;28;20139;-76
2021/04/17 08:48:04;;;;;;;30.08;16.20;;;;;;;5.08;100.00;94683.41;10528083;28;20039;-77
2021/04/17 08:53:13;;;;;;;17.63;11.55;;;;;;;5.08;100.00;94672.75;10500734;28;20044;-77
2021/04/17 08:58:20;;;;;;;22.95;13.18;;;;;;;5.09;100.00;94667.22;10485408;28;20043;-77
2021/04/17 09:03:46;;;;;;;24.35;14.70;;;;;;;5.20;100.00;94664.72;10485348;28;20090;-77
2021/04/17 09:09:23;;;;;;;21.95;13.40;;;;;;;5.20;100.00;94654.84;10485029;28;20031;-77
2021/04/17 09:14:26;;;;;;;19.98;12.43;;;;;;;5.25;100.00;94654.16;10485103;28;20033;-77
2021/04/17 09:19:40;;;;;;;17.08;10.68;;;;;;;5.19;100.00;94657.75;10484158;28;20934;-77
2021/04/17 09:24:42;;;;;;;19.65;11.43;;;;;;;5.30;100.00;94652.38;10483965;28;20066;-77
2021/04/17 09:29:42;;;;;;;19.95;12.45;;;;;;;5.35;100.00;94640.19;10484359;28;20111;-77
2021/04/17 09:34:43;;;;;;;20.92;13.68;;;;;;;5.38;100.00;94634.38;10490579;28;20036;-77
2021/04/17 09:39:46;;;;;;;21.02;12.98;;;;;;;5.55;100.00;94624.47;10525390;28;20123;-77
2021/04/17 09:44:49;;;;;;;18.23;11.98;;;;;;;5.71;100.00;94624.72;10524562;28;20034;-77
2021/04/17 09:49:50;;;;;;;18.27;12.23;;;;;;;5.65;100.00;94623.81;10525349;28;20032;-77
2021/04/17 09:55:03;;;;;;;19.42;11.10;;;;;;;5.50;100.00;94610.28;10505110;28;20055;-77
2021/04/17 10:00:04;;;;;;;16.40;10.63;;;;;;;5.05;100.00;94614.66;10503451;28;20043;-77
2021/04/17 10:05:05;;;;;;;17.83;11.55;;;;;;;4.92;100.00;94615.78;10500990;28;20040;-77
2021/04/17 10:10:07;;;;;;;14.00;8.77;;;;;;;4.88;100.00;94626.09;10514721;28;20036;-77
2021/04/17 10:15:39;;;;;;;17.83;12.18;;;;;;;4.96;100.00;94619.56;10498525;28;20485;-80
2021/04/17 10:20:42;;;;;;;17.00;10.20;;;;;;;4.93;100.00;94612.88;10484876;28;20110;-77
2021/04/17 10:25:44;;;;;;;13.52;8.88;;;;;;;5.07;100.00;94621.34;10482733;28;20131;-77
2021/04/17 10:30:48;;;;;;;12.23;8.50;;;;;;;5.12;100.00;94610.78;10526371;28;20411;-78
2021/04/17 10:35:50;;;;;;;14.13;9.27;;;;;;;5.32;100.00;94612.16;10498942;28;20474;-78
2021/04/17 10:40:51;;;;;;;11.18;6.72;;;;;;;5.42;100.00;94604.31;10518301;28;20119;-77
2021/04/17 10:45:58;;;;;;;11.15;7.57;;;;;;;5.47;100.00;94604.41;10518609;28;20028;-77
2021/04/17 10:51:08;;;;;;;9.85;6.45;;;;;;;5.48;100.00;94592.69;10518057;28;20123;-76
2021/04/17 10:56:13;;;;;;;13.68;6.93;;;;;;;5.58;100.00;94592.03;10517226;28;20036;-78
2021/04/17 11:01:23;;;;;;;10.73;7.07;;;;;;;5.70;100.00;94594.56;10520728;28;20028;-77
2021/04/17 11:06:24;;;;;;;13.38;7.90;;;;;;;5.78;100.00;94588.03;10520552;28;20147;-77
2021/04/17 11:11:26;;;;;;;9.63;6.60;;;;;;;5.84;100.00;94583.56;10529110;28;20020;-77
2021/04/17 11:16:45;;;;;;;9.95;6.55;;;;;;;5.94;100.00;94568.47;10499847;28;20398;-77
2021/04/17 11:21:46;;;;;;;9.23;6.53;;;;;;;6.01;100.00;94567.53;10492973;28;20110;-77
2021/04/17 11:26:46;;;;;;;10.60;6.43;;;;;;;6.02;100.00;94569.94;10529438;28;20993;-76
2021/04/17 11:31:46;;;;;;;11.47;7.67;;;;;;;6.07;100.00;94564.69;10524734;28;20403;-76
2021/04/17 11:36:47;;;;;;;11.38;8.23;;;;;;;6.16;100.00;94562.38;10529487;28;20383;-77
2021/04/17 11:41:47;;;;;;;10.65;7.82;;;;;;;5.91;100.00;94563.66;10529710;28;20035;-78
2021/04/17 11:46:48;;;;;;;11.25;7.55;;;;;;;5.96;100.00;94560.25;10511342;28;20044;-77
2021/04/17 11:51:48;;;;;;;13.57;7.37;;;;;;;5.93;100.00;94550.88;10529351;28;20119;-76
2021/04/17 11:56:48;;;;;;;10.50;8.07;;;;;;;5.90;100.00;94543.38;10529116;28;20509;-77
2021/04/17 12:01:49;;;;;;;12.45;8.10;;;;;;;5.80;100.00;94537.91;10528594;28;20527;-77
2021/04/17 12:06:50;;;;;;;11.97;9.43;;;;;;;5.87;100.00;94530.53;10527674;28;20062;-76
2021/04/17 12:11:51;;;;;;;14.73;9.60;;;;;;;5.92;100.00;94527.13;10528625;28;20454;-77
2021/04/17 12:16:51;;;;;;;12.75;8.50;;;;;;;5.76;100.00;94526.13;10529418;28;20111;-76
2021/04/17 12:21:52;;;;;;;12.80;8.87;;;;;;;5.72;100.00;94522.34;10527681;28;20406;-77
2021/04/17 12:26:52;;;;;;;16.77;10.60;;;;;;;5.85;100.00;94521.97;10510386;28;20020;-77
2021/04/17 12:31:52;;;;;;;16.48;9.82;;;;;;;5.94;100.00;94517.78;10511926;28;20119;-77
2021/04/17 12:36:53;;;;;;;15.13;10.60;;;;;;;5.75;100.00;94522.66;10525900;28;20012;-77
2021/04/17 12:41:53;;;;;;;14.87;10.80;;;;;;;5.58;100.00;94517.38;10527034;28;20032;-76
2021/04/17 12:46:53;;;;;;;17.77;11.60;;;;;;;5.55;100.00;94519.72;10517706;28;20036;-76
2021/04/17 12:51:54;;;;;;;18.63;11.50;;;;;;;5.64;100.00;94515.59;10485031;28;20509;-76
2021/04/17 12:56:55;;;;;;;17.67;11.80;;;;;;;5.78;100.00;94513.38;10525527;28;20274;-77
2021/04/17 13:01:55;;;;;;;21.38;13.18;;;;;;;5.91;100.00;94507.63;10507829;28;20293;-77
2021/04/17 13:06:56;;;;;;;44.72;21.52;;;;;;;6.02;100.00;94507.81;10517090;28;20030;-78
2021/04/17 13:11:56;;;;;;;20.90;12.82;;;;;;;6.14;100.00;94508.47;10527094;28;20155;-77
2021/04/17 13:16:57;;;;;;;20.67;13.07;;;;;;;6.25;100.00;94509.34;10527126;28;20028;-77
2021/04/17 13:21:57;;;;;;;20.57;12.07;;;;;;;6.15;100.00;94505.56;10486725;28;20040;-77
2021/04/17 13:26:57;;;;;;;22.50;14.30;;;;;;;5.92;100.00;94493.25;10484593;28;20278;-76
2021/04/17 13:31:58;;;;;;;28.20;14.85;;;;;;;5.82;100.00;94501.16;10484788;28;20027;-76
2021/04/17 13:36:58;;;;;;;27.40;15.77;;;;;;;5.81;100.00;94487.00;10509261;28;20023;-76
2021/04/17 13:41:59;;;;;;;21.93;13.60;;;;;;;5.70;100.00;94497.78;10524036;28;20049;-77
2021/04/17 13:46:59;;;;;;;23.87;15.03;;;;;;;5.69;100.00;94496.19;10526263;28;20784;-76
2021/04/17 13:51:59;;;;;;;25.25;14.38;;;;;;;5.73;100.00;94497.28;10522393;28;20294;-76
2021/04/17 13:57:00;;;;;;;21.20;13.80;;;;;;;5.71;100.00;94494.09;10521860;28;20035;-76
2021/04/17 14:02:02;;;;;;;24.60;15.07;;;;;;;5.55;100.00;94485.88;10521931;28;20058;-77
2021/04/17 14:07:03;;;;;;;24.85;14.07;;;;;;;5.63;100.00;94487.31;10521642;28;20281;-77
2021/04/17 14:12:05;;;;;;;33.78;17.80;;;;;;;5.63;100.00;94482.78;10521933;28;20085;-77
2021/04/17 14:17:05;;;;;;;34.47;20.15;;;;;;;5.49;100.00;94478.88;10524308;28;20031;-77
2021/04/17 14:22:05;;;;;;;35.27;19.07;;;;;;;5.39;100.00;94468.88;10505539;28;20037;-77
2021/04/17 14:27:06;;;;;;;37.33;20.43;;;;;;;5.47;100.00;94473.00;10482515;28;20381;-79
2021/04/17 14:32:07;;;;;;;31.98;19.17;;;;;;;5.37;100.00;94475.50;10482625;28;20021;-80
2021/04/17 14:37:08;;;;;;;33.67;20.20;;;;;;;5.49;100.00;94478.88;10509796;28;20028;-79
2021/04/17 14:42:08;;;;;;;34.33;20.25;;;;;;;5.46;100.00;94476.72;10518701;28;20029;-80
2021/04/17 14:47:09;;;;;;;38.45;20.63;;;;;;;5.30;100.00;94478.34;10499452;28;20066;-80
2021/04/17 14:52:09;;;;;;;33.33;19.70;;;;;;;5.35;100.00;94483.75;10508504;28;20040;-80
2021/04/17 14:57:10;;;;;;;35.13;18.83;;;;;;;5.28;100.00;94486.59;10512398;28;20123;-80
2021/04/17 15:02:11;;;;;;;34.75;15.82;;;;;;;5.31;100.00;94475.44;10514873;28;20282;-80
2021/04/17 15:07:11;;;;;;;33.13;19.70;;;;;;;5.22;100.00;94476.09;10534841;28;20027;-80
2021/04/17 15:12:11;;;;;;;34.77;19.47;;;;;;;5.21;100.00;94485.97;10533289;28;20046;-80
2021/04/17 15:17:12;;;;;;;31.77;16.98;;;;;;;5.17;100.00;94476.84;10535499;28;20024;-81
2021/04/17 15:22:13;;;;;;;31.87;17.20;;;;;;;5.01;100.00;94478.50;10535147;28;20032;-81
2021/04/17 15:27:15;;;;;;;32.88;18.42;;;;;;;4.94;100.00;94483.19;10519532;28;20028;-80
2021/04/17 15:32:15;;;;;;;36.60;19.92;;;;;;;5.04;100.00;94491.34;10473380;28;20024;-80
2021/04/17 15:37:16;;;;;;;39.33;20.57;;;;;;;5.12;100.00;94490.91;10520369;28;20023;-80
2021/04/17 15:42:16;;;;;;;39.08;19.58;;;;;;;5.19;100.00;94493.41;10533275;28;20089;-80
2021/04/17 15:47:17;;;;;;;44.15;22.13;;;;;;;5.21;100.00;94498.50;10534234;28;20032;-80
2021/04/17 15:52:17;;;;;;;47.45;21.80;;;;;;;5.18;100.00;94474.97;10520130;28;20441;-80
2021/04/17 16:18:25;;;;;;;41.95;20.90;;;;;;;5.19;100.00;94514.72;10503627;28;20036;-80
2021/04/17 16:23:25;;;;;;;44.20;22.38;;;;;;;5.28;100.00;94517.78;10512436;28;20040;-80
2021/04/17 16:28:28;;;;;;;47.30;23.43;;;;;;;5.21;100.00;94522.47;10528909;28;20023;-80
2021/04/17 16:33:28;;;;;;;44.42;22.13;;;;;;;5.28;100.00;94505.25;10529551;28;20024;-79
2021/04/17 16:38:29;;;;;;;49.13;21.27;;;;;;;5.35;100.00;94506.94;10504319;28;20029;-80
2021/04/17 16:43:30;;;;;;;32.17;17.67;;;;;;;5.38;100.00;94515.25;10487851;28;20456;-79
2021/04/17 16:48:30;;;;;;;43.13;22.45;;;;;;;5.29;100.00;94524.72;10475000;28;20119;-80
2021/04/17 16:53:31;;;;;;;56.93;26.30;;;;;;;5.37;100.00;94531.47;10510508;28;20487;-80
2021/04/17 16:58:31;;;;;;;44.33;23.07;;;;;;;5.25;100.00;94519.06;10530081;28;20297;-80
2021/04/17 17:03:32;;;;;;;43.23;23.20;;;;;;;5.19;100.00;94506.72;10528839;28;20313;-79
2021/04/17 17:08:32;;;;;;;54.90;25.52;;;;;;;5.14;100.00;94509.31;10525318;28;20281;-73
2021/04/17 17:13:35;;;;;;;41.90;23.10;;;;;;;5.12;100.00;94520.22;10524433;28;20438;-72
2021/04/17 17:18:35;;;;;;;49.97;26.70;;;;;;;5.15;100.00;94526.91;10522211;28;20032;-72
2021/04/17 17:23:35;;;;;;;55.30;28.07;;;;;;;5.09;100.00;94541.19;10523668;28;20035;-72
2021/04/17 17:28:36;;;;;;;72.70;35.07;;;;;;;4.95;100.00;94544.22;10523887;28;20023;-72
2021/04/17 17:33:36;;;;;;;53.22;25.05;;;;;;;4.94;100.00;94534.59;10522940;28;20028;-72
2021/04/17 17:38:36;;;;;;;40.03;21.33;;;;;;;4.91;100.00;94535.09;10519771;28;20859;-71
2021/04/17 17:43:37;;;;;;;22.10;12.57;;;;;;;4.79;100.00;94529.03;10523497;28;20277;-72
2021/04/17 17:48:38;;;;;;;26.45;11.82;;;;;;;4.82;100.00;94544.50;10522660;28;20278;-73
2021/04/17 17:53:38;;;;;;;25.25;12.32;;;;;;;4.65;100.00;94552.50;10522061;28;20052;-72
2021/04/17 17:58:40;;;;;;;30.05;15.60;;;;;;;4.56;100.00;94528.13;10516412;28;20406;-72
2021/04/17 18:03:40;;;;;;;37.80;17.35;;;;;;;4.40;100.00;94547.53;10483942;28;20024;-75
2021/04/17 18:08:41;;;;;;;27.88;15.40;;;;;;;4.20;100.00;94548.78;10481934;28;20028;-71
2021/04/17 18:13:41;;;;;;;28.53;13.77;;;;;;;4.12;100.00;94559.78;10466249;28;20020;-73
2021/04/17 18:18:42;;;;;;;22.60;11.90;;;;;;;4.05;100.00;94559.13;10483268;28;20287;-72
2021/04/17 18:23:42;;;;;;;27.55;14.05;;;;;;;4.04;100.00;94554.84;10482848;28;20472;-73
2021/04/17 18:28:43;;;;;;;29.45;14.55;;;;;;;4.16;100.00;94557.44;10484256;28;20422;-73
2021/04/17 18:33:45;;;;;;;35.47;17.37;;;;;;;4.24;100.00;94571.19;10529998;28;20039;-73
2021/04/17 18:38:46;;;;;;;28.27;14.98;;;;;;;4.27;100.00;94569.91;10515290;28;20373;-73
2021/04/17 18:43:46;;;;;;;31.90;15.73;;;;;;;4.24;100.00;94570.38;10506749;28;20043;-72
2021/04/17 18:48:47;;;;;;;30.48;16.13;;;;;;;4.25;100.00;94572.00;10511753;28;20101;-72
2021/04/17 18:53:47;;;;;;;38.92;16.85;;;;;;;4.26;100.00;94586.91;10490417;28;20824;-73
2021/04/17 18:58:47;;;;;;;36.23;18.60;;;;;;;4.23;100.00;94582.88;10503023;28;20430;-72
2021/04/17 19:03:48;;;;;;;38.73;20.60;;;;;;;4.30;100.00;94589.91;10512419;28;20286;-71
2021/04/17 19:08:48;;;;;;;42.22;22.42;;;;;;;4.25;100.00;94591.41;10525412;28;20266;-73
2021/04/17 19:13:49;;;;;;;44.63;24.77;;;;;;;4.22;100.00;94589.22;10496646;28;20422;-73
2021/04/17 19:18:50;;;;;;;32.38;18.15;;;;;;;4.03;100.00;94593.09;10531885;28;20035;-73
2021/04/17 19:23:50;;;;;;;30.85;17.00;;;;;;;4.04;100.00;94584.09;10530915;28;20070;-74
2021/04/17 19:28:50;;;;;;;36.70;19.07;;;;;;;3.99;100.00;94568.84;10530774;28;20035;-73
2021/04/17 19:33:51;;;;;;;42.75;21.00;;;;;;;3.92;100.00;94576.97;10531815;28;20036;-74
2021/04/17 19:38:52;;;;;;;37.47;20.42;;;;;;;3.92;100.00;94574.31;10514115;28;20102;-71
2021/04/17 19:43:52;;;;;;;35.70;19.58;;;;;;;3.91;100.00;94570.03;10487648;28;20036;-72
2021/04/17 19:48:53;;;;;;;39.83;23.52;;;;;;;3.98;100.00;94574.38;10488794;28;20103;-72
2021/04/17 19:53:54;;;;;;;30.65;16.98;;;;;;;3.92;100.00;94570.81;10493391;28;20040;-72
2021/04/17 19:58:55;;;;;;;24.70;16.23;;;;;;;3.85;100.00;94562.16;10528593;28;20044;-72
2021/04/17 20:03:55;;;;;;;25.87;12.43;;;;;;;3.64;100.00;94563.59;10528076;28;20468;-72
2021/04/17 20:08:55;;;;;;;19.23;11.47;;;;;;;3.32;100.00;94563.97;10525666;28;20028;-72
2021/04/17 20:13:56;;;;;;;19.00;8.68;;;;;;;3.00;100.00;94565.13;10519714;28;20138;-72
2021/04/17 20:18:57;;;;;;;12.85;7.30;;;;;;;2.91;100.00;94554.03;10498790;28;20024;-76
2021/04/17 20:23:57;;;;;;;12.13;6.35;;;;;;;2.95;100.00;94554.41;10487367;28;20032;-75
2021/04/17 20:28:58;;;;;;;13.18;6.80;;;;;;;3.02;100.00;94556.94;10468723;28;20024;-75
2021/04/17 20:33:59;;;;;;;16.20;6.50;;;;;;;3.18;100.00;94542.16;10486456;28;20043;-75
2021/04/17 20:39:00;;;;;;;7.80;5.43;;;;;;;3.19;100.00;94536.59;10486238;28;20025;-75
2021/04/17 20:44:02;;;;;;;9.32;5.43;;;;;;;3.27;100.00;94532.81;10486470;28;20123;-75
2021/04/17 20:49:03;;;;;;;6.57;4.28;;;;;;;3.31;100.00;94527.81;10485782;28;20021;-76
2021/04/17 20:54:03;;;;;;;10.18;4.82;;;;;;;3.30;100.00;94520.91;10467273;28;20095;-76
2021/04/17 20:59:04;;;;;;;5.32;3.35;;;;;;;3.23;100.00;94536.97;10485521;28;20085;-76
2021/04/17 21:04:05;;;;;;;9.00;4.15;;;;;;;3.34;100.00;94528.19;10485114;28;20086;-76
2021/04/17 21:09:05;;;;;;;6.32;3.97;;;;;;;3.50;100.00;94524.00;10485934;28;20032;-76
2021/04/17 21:14:05;;;;;;;6.25;3.83;;;;;;;3.44;100.00;94518.81;10484502;28;20021;-76
2021/04/17 21:19:06;;;;;;;8.55;3.47;;;;;;;3.21;100.00;94518.63;10484455;28;20029;-75
2021/04/17 21:24:07;;;;;;;9.60;4.23;;;;;;;3.38;100.00;94517.91;10482881;28;20021;-75
2021/04/17 21:29:07;;;;;;;9.23;4.47;;;;;;;3.43;100.00;94515.34;10483872;28;20028;-75
2021/04/17 21:34:08;;;;;;;7.43;5.07;;;;;;;3.50;100.00;94521.34;10483242;28;20036;-76
2021/04/17 21:39:09;;;;;;;6.27;4.67;;;;;;;3.51;100.00;94511.53;10482782;28;20035;-76
2021/04/17 21:44:12;;;;;;;6.93;5.05;;;;;;;3.50;100.00;94510.72;10482620;28;20369;-76
2021/04/17 21:49:13;;;;;;;9.38;5.30;;;;;;;3.52;100.00;94505.19;10464213;28;20062;-77
2021/04/17 21:54:13;;;;;;;11.00;5.47;;;;;;;3.50;100.00;94505.41;10483047;28;20965;-76
2021/04/17 21:59:14;;;;;;;8.60;4.80;;;;;;;3.42;100.00;94503.13;10464584;28;20282;-76
2021/04/17 22:04:15;;;;;;;9.85;5.32;;;;;;;3.53;100.00;94507.59;10481912;28;20115;-76
2021/04/17 22:09:15;;;;;;;7.60;4.85;;;;;;;3.61;100.00;94508.28;10483899;28;20085;-76
2021/04/17 22:14:16;;;;;;;8.40;5.37;;;;;;;3.54;100.00;94501.22;10482760;28;20028;-76
2021/04/17 22:19:16;;;;;;;8.23;4.93;;;;;;;3.50;100.00;94509.91;10483342;28;20642;-76
2021/04/17 22:24:17;;;;;;;11.13;5.85;;;;;;;3.56;100.00;94509.78;10466146;28;20086;-76
2021/04/17 22:29:17;;;;;;;12.57;7.03;;;;;;;3.61;100.00;94500.31;10465773;28;20024;-76
2021/04/17 22:34:17;;;;;;;8.73;5.90;;;;;;;3.62;100.00;94499.25;10483460;28;20879;-76
2021/04/17 22:39:18;;;;;;;8.73;5.57;;;;;;;3.62;100.00;94499.25;10482411;28;20318;-76
2021/04/17 22:44:18;;;;;;;9.98;5.70;;;;;;;3.57;100.00;94499.94;10482967;28;20032;-76
2021/04/17 22:49:18;;;;;;;9.40;5.97;;;;;;;3.62;100.00;94488.63;10482349;28;20456;-76
2021/04/17 22:54:19;;;;;;;10.80;5.70;;;;;;;3.59;100.00;94481.94;10482136;28;20677;-75
2021/04/17 22:59:19;;;;;;;10.60;5.70;;;;;;;3.74;100.00;94484.06;10483636;28;20282;-76
2021/04/17 23:04:20;;;;;;;7.93;5.47;;;;;;;3.77;100.00;94478.31;10465020;28;20399;-76
2021/04/17 23:09:20;;;;;;;5.97;3.50;;;;;;;3.64;100.00;94474.03;10483265;28;20270;-76
2021/04/17 23:14:20;;;;;;;7.85;4.18;;;;;;;3.64;100.00;94449.34;10484854;28;20028;-76
2021/04/17 23:19:21;;;;;;;6.07;3.90;;;;;;;3.65;100.00;94453.63;10489314;28;20033;-76
2021/04/17 23:24:21;;;;;;;9.60;4.60;;;;;;;3.81;100.00;94444.88;10471259;28;20274;-75